Terminal Aerodrome Forecast
Issued by NWS Cleveland, OH

Home | Current Version | Previous Version | Graphics & Text | Print | Product List | Glossary On
Versions: 1 2 3 4 5 6 7 8 9 10 11 12 13 14 15
990
FTUS41 KCLE 261123
TAFCAK
TAF
KCAK 261123Z 2612/2712 18006KT P6SM SCT050 BKN250
     FM262300 20010KT P6SM VCSH SCT050 BKN100
     FM270300 22007KT P6SM BKN050
     FM270900 20003KT 4SM BR BKN050=

USA.gov is the U.S. government's official web portal to all federal, state and local government web resources and services.